Time;durP1;ratioP1;P1;durP2;ratioP2;P2;SDS_P1;SDS_P2;PMS_P1;PMS_P2;Temp;Humidity;BMP_temperature;BMP_pressure;BME280_temperature;BME280_humidity;BME280_pressure;Samples;Min_cycle;Max_cycle;Signal;HPM_P1;HPM_P2
2023/04/29 00:00:12;;;;;;;11.57;5.55;;;;;;;;;;6234738;28;20398;-79
2023/04/29 00:03:14;;;;;;;9.80;6.05;;;;;;;;;;6233447;28;20511;-80
2023/04/29 00:06:16;;;;;;;12.88;7.28;;;;;;;;;;6235827;28;20053;-78
2023/04/29 00:09:18;;;;;;;13.23;7.70;;;;;;;;;;6239120;28;20045;-78
2023/04/29 00:12:20;;;;;;;15.10;7.32;;;;;;;;;;6236773;28;20211;-80
2023/04/29 00:15:21;;;;;;;12.90;7.50;;;;;;;;;;6240972;28;20381;-79
2023/04/29 00:18:23;;;;;;;11.85;7.75;;;;;;;;;;6238695;28;20048;-79
2023/04/29 00:21:26;;;;;;;11.13;7.32;;;;;;;;;;6232775;28;20048;-78
2023/04/29 00:24:28;;;;;;;10.43;7.05;;;;;;;;;;6251651;28;20052;-79
2023/04/29 00:27:30;;;;;;;9.95;7.15;;;;;;;;;;6243207;28;20127;-78
2023/04/29 00:30:33;;;;;;;10.82;6.90;;;;;;;;;;6217591;28;20053;-79
2023/04/29 00:33:35;;;;;;;9.38;6.57;;;;;;;;;;6218658;28;20045;-79
2023/04/29 00:36:36;;;;;;;9.70;6.63;;;;;;;;;;6246441;28;20037;-79
2023/04/29 00:39:38;;;;;;;8.70;6.15;;;;;;;;;;6235864;28;20142;-79
2023/04/29 00:42:40;;;;;;;8.60;5.87;;;;;;;;;;6256502;28;20050;-80
2023/04/29 00:45:43;;;;;;;7.57;4.88;;;;;;;;;;6234323;28;20049;-78
2023/04/29 00:48:44;;;;;;;6.97;4.55;;;;;;;;;;6235953;28;20041;-79
2023/04/29 00:51:47;;;;;;;5.97;4.65;;;;;;;;;;6235972;28;20045;-79
2023/04/29 00:54:50;;;;;;;7.07;4.90;;;;;;;;;;6250816;28;20578;-79
2023/04/29 00:57:51;;;;;;;9.50;5.07;;;;;;;;;;6236053;28;20049;-78
2023/04/29 01:00:55;;;;;;;7.07;4.63;;;;;;;;;;6227194;28;20415;-78
2023/04/29 01:03:57;;;;;;;8.55;5.15;;;;;;;;;;6228475;28;20044;-78
2023/04/29 01:07:18;;;;;;;7.93;5.03;;;;;;;;;;6227625;28;20041;-78
2023/04/29 01:10:28;;;;;;;8.98;5.00;;;;;;;;;;6231630;28;20448;-78
2023/04/29 01:13:41;;;;;;;7.72;4.78;;;;;;;;;;6228386;28;20033;-79
2023/04/29 01:16:58;;;;;;;8.35;5.03;;;;;;;;;;6244410;28;20132;-79
2023/04/29 01:20:00;;;;;;;8.65;5.15;;;;;;;;;;6231824;28;20167;-78
2023/04/29 01:23:02;;;;;;;7.40;4.80;;;;;;;;;;6222127;28;20144;-79
2023/04/29 01:26:04;;;;;;;7.95;5.30;;;;;;;;;;6247177;28;20068;-79
2023/04/29 01:29:50;;;;;;;9.88;4.97;;;;;;;;;;6229597;28;20050;-79
2023/04/29 01:33:18;;;;;;;7.22;4.70;;;;;;;;;;6233710;28;20076;-78
2023/04/29 01:37:02;;;;;;;9.05;4.95;;;;;;;;;;6229043;28;20534;-77
2023/04/29 01:40:33;;;;;;;11.18;6.32;;;;;;;;;;6230834;28;20057;-77
2023/04/29 01:43:48;;;;;;;10.93;5.90;;;;;;;;;;6237108;28;20045;-78
2023/04/29 01:46:55;;;;;;;13.40;7.00;;;;;;;;;;6235262;28;20056;-77
2023/04/29 01:50:05;;;;;;;10.02;5.57;;;;;;;;;;6251252;28;20637;-78
2023/04/29 01:53:07;;;;;;;9.13;5.28;;;;;;;;;;6236099;28;20157;-77
2023/04/29 01:56:09;;;;;;;10.52;6.25;;;;;;;;;;6233159;28;20728;-78
2023/04/29 01:59:40;;;;;;;13.40;7.68;;;;;;;;;;6243224;28;20049;-78
2023/04/29 02:03:08;;;;;;;15.90;7.35;;;;;;;;;;6245860;28;20507;-78
2023/04/29 02:06:19;;;;;;;15.85;7.18;;;;;;;;;;6233389;28;20041;-77
2023/04/29 02:09:26;;;;;;;13.68;6.97;;;;;;;;;;6240063;28;20049;-77
2023/04/29 02:12:35;;;;;;;14.35;7.53;;;;;;;;;;6222045;28;20037;-78
2023/04/29 02:15:36;;;;;;;15.73;7.60;;;;;;;;;;6238222;28;20124;-77
2023/04/29 02:18:39;;;;;;;16.00;7.63;;;;;;;;;;6257109;28;20507;-79
2023/04/29 02:21:41;;;;;;;15.35;7.53;;;;;;;;;;6256492;28;20539;-78
2023/04/29 02:24:43;;;;;;;15.40;8.10;;;;;;;;;;6236288;28;20160;-78
2023/04/29 02:27:44;;;;;;;16.17;8.13;;;;;;;;;;6224048;28;20194;-78
2023/04/29 02:30:46;;;;;;;12.85;7.60;;;;;;;;;;6235106;28;20045;-78
2023/04/29 02:33:48;;;;;;;15.45;7.75;;;;;;;;;;6234633;28;20100;-78
2023/04/29 02:36:49;;;;;;;17.33;8.38;;;;;;;;;;6235407;28;20050;-79
2023/04/29 02:39:55;;;;;;;18.30;8.32;;;;;;;;;;6234238;28;20872;-77
2023/04/29 02:42:56;;;;;;;16.63;8.38;;;;;;;;;;6237010;28;20064;-78
2023/04/29 02:46:01;;;;;;;16.73;8.00;;;;;;;;;;6235717;28;20069;-78
2023/04/29 02:49:04;;;;;;;16.60;8.20;;;;;;;;;;6232104;28;20503;-78
2023/04/29 02:52:06;;;;;;;16.52;7.45;;;;;;;;;;6229496;28;20052;-80
2023/04/29 02:55:08;;;;;;;19.50;8.20;;;;;;;;;;6234955;28;20038;-79
2023/04/29 02:58:10;;;;;;;12.95;7.07;;;;;;;;;;6234775;28;20049;-79
2023/04/29 03:01:12;;;;;;;15.27;7.15;;;;;;;;;;6235078;28;20060;-79
2023/04/29 03:04:14;;;;;;;18.17;7.50;;;;;;;;;;6233714;28;20064;-78
2023/04/29 03:07:16;;;;;;;17.42;7.40;;;;;;;;;;6231351;28;20142;-80
2023/04/29 03:10:18;;;;;;;12.90;6.55;;;;;;;;;;6237914;28;20530;-79
2023/04/29 03:13:20;;;;;;;12.70;6.90;;;;;;;;;;6235594;28;20108;-77
2023/04/29 03:16:23;;;;;;;12.00;6.50;;;;;;;;;;6213791;28;20064;-77
2023/04/29 03:19:24;;;;;;;13.48;6.50;;;;;;;;;;6235271;28;20472;-77
2023/04/29 03:22:26;;;;;;;15.18;6.68;;;;;;;;;;6224199;28;20066;-79
2023/04/29 03:25:28;;;;;;;12.60;5.47;;;;;;;;;;6223656;28;20038;-79
2023/04/29 03:28:30;;;;;;;11.35;5.55;;;;;;;;;;6227647;28;20073;-79
2023/04/29 03:31:32;;;;;;;11.45;5.78;;;;;;;;;;6225752;28;20053;-78
2023/04/29 03:34:34;;;;;;;11.30;6.22;;;;;;;;;;6235257;28;20095;-79
2023/04/29 03:37:59;;;;;;;13.57;6.15;;;;;;;;;;6232691;28;20053;-78
2023/04/29 03:41:04;;;;;;;10.55;5.43;;;;;;;;;;6251667;28;20042;-78
2023/04/29 03:44:06;;;;;;;9.93;5.50;;;;;;;;;;6239716;28;20053;-77
2023/04/29 03:47:08;;;;;;;10.70;6.28;;;;;;;;;;6235915;28;20041;-77
2023/04/29 03:50:10;;;;;;;11.68;6.10;;;;;;;;;;6236272;28;20049;-78
2023/04/29 03:53:13;;;;;;;13.65;5.30;;;;;;;;;;6212992;28;20042;-78
2023/04/29 03:56:15;;;;;;;12.85;6.45;;;;;;;;;;6229712;28;20051;-78
2023/04/29 03:59:18;;;;;;;10.63;5.97;;;;;;;;;;6233794;28;20052;-79
2023/04/29 04:02:20;;;;;;;12.23;6.10;;;;;;;;;;6200701;28;20068;-78
2023/04/29 04:05:24;;;;;;;14.32;7.13;;;;;;;;;;6202798;28;20037;-78
2023/04/29 04:08:30;;;;;;;11.15;5.95;;;;;;;;;;6230870;28;20037;-78
2023/04/29 04:11:40;;;;;;;12.02;6.25;;;;;;;;;;6208132;28;20044;-79
2023/04/29 04:14:42;;;;;;;13.60;6.70;;;;;;;;;;6246524;28;20063;-79
2023/04/29 04:17:44;;;;;;;13.70;6.93;;;;;;;;;;6229764;28;20102;-78
2023/04/29 04:20:46;;;;;;;14.57;7.03;;;;;;;;;;6232887;28;20467;-78
2023/04/29 04:23:48;;;;;;;11.93;6.28;;;;;;;;;;6228640;28;20037;-78
2023/04/29 04:26:54;;;;;;;11.40;6.28;;;;;;;;;;6229606;28;20050;-78
2023/04/29 04:30:02;;;;;;;12.65;6.32;;;;;;;;;;6207011;28;20050;-79
2023/04/29 04:33:06;;;;;;;12.75;6.18;;;;;;;;;;6228012;28;20107;-78
2023/04/29 04:36:10;;;;;;;15.20;7.05;;;;;;;;;;6230134;28;20044;-77
2023/04/29 04:39:11;;;;;;;16.75;7.20;;;;;;;;;;6230787;28;20045;-76
2023/04/29 04:42:13;;;;;;;14.15;6.65;;;;;;;;;;6226245;28;20096;-78
2023/04/29 04:45:15;;;;;;;12.20;6.22;;;;;;;;;;6233145;28;20086;-77
2023/04/29 04:48:23;;;;;;;16.58;7.38;;;;;;;;;;6230168;28;20495;-78
2023/04/29 04:51:27;;;;;;;12.50;6.97;;;;;;;;;;6222615;28;20069;-77
2023/04/29 04:54:29;;;;;;;14.68;6.80;;;;;;;;;;6201747;28;20108;-77
2023/04/29 04:57:40;;;;;;;14.77;6.82;;;;;;;;;;6233199;28;20126;-78
2023/04/29 05:00:44;;;;;;;14.97;7.40;;;;;;;;;;6213614;28;20163;-78
2023/04/29 05:03:46;;;;;;;13.88;6.95;;;;;;;;;;6247407;28;20041;-78
2023/04/29 05:06:48;;;;;;;14.05;6.72;;;;;;;;;;6227843;28;20056;-77
2023/04/29 05:09:52;;;;;;;14.90;7.43;;;;;;;;;;6233617;28;20063;-78
2023/04/29 05:12:55;;;;;;;13.65;6.82;;;;;;;;;;6229141;28;20511;-78
2023/04/29 05:15:57;;;;;;;15.48;7.07;;;;;;;;;;6215183;28;20060;-78
2023/04/29 05:19:02;;;;;;;12.60;6.70;;;;;;;;;;6246215;28;20049;-78
2023/04/29 05:22:08;;;;;;;14.10;7.35;;;;;;;;;;6226293;28;20052;-78
2023/04/29 05:25:11;;;;;;;13.57;7.20;;;;;;;;;;6234266;28;20045;-77
2023/04/29 05:28:14;;;;;;;16.48;7.63;;;;;;;;;;6235045;28;20037;-78
2023/04/29 05:31:15;;;;;;;16.13;7.32;;;;;;;;;;6229680;28;20061;-78
2023/04/29 05:34:17;;;;;;;15.70;6.63;;;;;;;;;;6247098;28;20042;-78
2023/04/29 05:37:19;;;;;;;14.93;7.40;;;;;;;;;;6231480;28;20503;-77
2023/04/29 05:40:37;;;;;;;15.70;7.60;;;;;;;;;;6225414;28;20052;-78
2023/04/29 05:44:02;;;;;;;13.27;7.05;;;;;;;;;;6224491;28;20088;-78
2023/04/29 05:47:05;;;;;;;15.73;7.05;;;;;;;;;;6252456;28;20125;-78
2023/04/29 05:50:10;;;;;;;15.00;7.57;;;;;;;;;;6232445;28;20132;-78
2023/04/29 05:53:12;;;;;;;15.02;6.97;;;;;;;;;;6235578;28;20065;-78
2023/04/29 05:56:15;;;;;;;13.60;6.50;;;;;;;;;;6232073;28;20041;-77
2023/04/29 05:59:17;;;;;;;15.23;6.68;;;;;;;;;;6233934;28;20041;-78
2023/04/29 06:02:25;;;;;;;14.13;6.70;;;;;;;;;;6249685;28;20479;-77
2023/04/29 06:05:27;;;;;;;13.15;6.90;;;;;;;;;;6236721;28;20111;-78
2023/04/29 06:08:54;;;;;;;13.07;6.43;;;;;;;;;;6225267;28;20045;-79
2023/04/29 06:11:59;;;;;;;12.20;6.45;;;;;;;;;;6252947;28;20530;-79
2023/04/29 06:15:01;;;;;;;13.77;6.60;;;;;;;;;;6236541;28;20140;-77
2023/04/29 06:18:04;;;;;;;11.82;6.00;;;;;;;;;;6194068;28;20048;-76
2023/04/29 06:21:06;;;;;;;15.68;7.80;;;;;;;;;;6223780;28;20045;-77
2023/04/29 06:24:13;;;;;;;13.93;6.78;;;;;;;;;;6201164;28;20371;-77
2023/04/29 06:27:15;;;;;;;13.23;6.95;;;;;;;;;;6215007;28;20632;-77
2023/04/29 06:30:17;;;;;;;15.55;7.25;;;;;;;;;;6211523;28;20060;-77
2023/04/29 06:33:19;;;;;;;15.73;7.80;;;;;;;;;;6211956;28;20052;-78
2023/04/29 06:36:22;;;;;;;15.27;7.03;;;;;;;;;;6172129;28;20056;-78
2023/04/29 06:39:35;;;;;;;;;;;;;;;;;;6232786;28;20053;-79
2023/04/29 06:42:51;;;;;;;13.45;7.20;;;;;;;;;;6234460;28;20430;-78
2023/04/29 06:46:19;;;;;;;15.38;7.28;;;;;;;;;;6223159;28;20048;-78
2023/04/29 06:49:51;;;;;;;15.48;7.70;;;;;;;;;;6223888;28;20057;-78
2023/04/29 06:52:55;;;;;;;15.07;7.78;;;;;;;;;;6253253;28;20529;-78
2023/04/29 06:55:57;;;;;;;13.30;6.30;;;;;;;;;;6237690;28;20213;-78
2023/04/29 06:58:59;;;;;;;16.77;6.63;;;;;;;;;;6238420;28;20132;-77
2023/04/29 07:02:01;;;;;;;15.40;6.47;;;;;;;;;;6231017;28;20042;-79
2023/04/29 07:05:04;;;;;;;14.60;7.05;;;;;;;;;;6231413;28;20556;-79
2023/04/29 07:08:05;;;;;;;11.80;6.40;;;;;;;;;;6224687;28;20149;-78
2023/04/29 07:11:07;;;;;;;13.73;7.07;;;;;;;;;;6207029;28;20737;-79
2023/04/29 07:14:09;;;;;;;14.48;6.50;;;;;;;;;;6211997;28;20045;-78
2023/04/29 07:17:10;;;;;;;13.15;6.53;;;;;;;;;;6226459;28;20048;-78
2023/04/29 07:20:15;;;;;;;13.98;6.97;;;;;;;;;;6230111;28;20065;-78
2023/04/29 07:23:18;;;;;;;11.63;6.38;;;;;;;;;;6210669;28;20045;-79
2023/04/29 07:26:20;;;;;;;13.73;7.40;;;;;;;;;;6247890;28;20113;-79
2023/04/29 07:29:22;;;;;;;13.33;6.83;;;;;;;;;;6232691;28;20052;-78
2023/04/29 07:32:23;;;;;;;14.07;6.45;;;;;;;;;;6231196;28;20045;-78
2023/04/29 07:35:25;;;;;;;13.25;6.22;;;;;;;;;;6232603;28;20511;-78
2023/04/29 07:38:28;;;;;;;14.07;6.10;;;;;;;;;;6247225;28;20046;-78
2023/04/29 07:41:31;;;;;;;12.38;5.93;;;;;;;;;;6206388;28;20060;-78
2023/04/29 07:44:33;;;;;;;11.25;5.57;;;;;;;;;;6250564;28;20045;-78
2023/04/29 07:47:36;;;;;;;11.98;5.45;;;;;;;;;;6235366;28;20155;-79
2023/04/29 07:50:41;;;;;;;12.25;5.15;;;;;;;;;;6228412;28;20065;-77
2023/04/29 07:53:43;;;;;;;12.27;5.53;;;;;;;;;;6228754;28;20053;-77
2023/04/29 07:56:45;;;;;;;9.45;4.63;;;;;;;;;;6229738;28;20052;-77
2023/04/29 07:59:53;;;;;;;9.23;4.78;;;;;;;;;;6250527;28;20983;-78
2023/04/29 08:02:55;;;;;;;10.20;4.63;;;;;;;;;;6219030;28;20045;-78
2023/04/29 08:06:04;;;;;;;8.77;4.35;;;;;;;;;;6249444;28;20071;-77
2023/04/29 08:09:08;;;;;;;7.97;4.07;;;;;;;;;;6230265;28;20120;-79
2023/04/29 08:12:09;;;;;;;8.20;4.00;;;;;;;;;;6235308;28;20088;-77
2023/04/29 08:15:14;;;;;;;6.30;3.30;;;;;;;;;;6212197;28;20134;-78
2023/04/29 08:18:16;;;;;;;5.83;3.40;;;;;;;;;;6236687;28;20057;-78
2023/04/29 08:21:18;;;;;;;6.00;3.45;;;;;;;;;;6237131;28;20057;-78
2023/04/29 08:24:21;;;;;;;5.68;2.72;;;;;;;;;;6233944;28;20516;-78
2023/04/29 08:27:23;;;;;;;4.72;3.20;;;;;;;;;;6233927;28;20032;-78
2023/04/29 08:30:24;;;;;;;3.78;2.40;;;;;;;;;;6232959;28;20044;-79
2023/04/29 08:33:26;;;;;;;4.82;2.90;;;;;;;;;;6232953;28;20061;-78
2023/04/29 08:36:28;;;;;;;3.97;2.60;;;;;;;;;;6232926;28;20046;-79
2023/04/29 08:39:30;;;;;;;4.30;2.50;;;;;;;;;;6233931;28;20539;-79
2023/04/29 08:42:35;;;;;;;3.03;2.40;;;;;;;;;;6232667;28;20055;-79
2023/04/29 08:45:38;;;;;;;6.30;3.30;;;;;;;;;;6230558;28;20037;-77
2023/04/29 08:48:40;;;;;;;4.00;2.40;;;;;;;;;;6229558;28;20052;-78
2023/04/29 08:51:53;;;;;;;3.50;2.53;;;;;;;;;;6231744;28;20052;-78
2023/04/29 08:54:55;;;;;;;3.30;2.10;;;;;;;;;;6230499;28;20132;-77
2023/04/29 08:57:57;;;;;;;2.20;1.80;;;;;;;;;;6248240;28;20060;-78
2023/04/29 09:00:59;;;;;;;2.97;1.95;;;;;;;;;;6230130;28;20493;-79
2023/04/29 09:04:06;;;;;;;3.08;2.20;;;;;;;;;;6205597;28;20053;-78
2023/04/29 09:07:09;;;;;;;3.30;2.15;;;;;;;;;;6229347;28;20499;-78
2023/04/29 09:10:12;;;;;;;3.28;2.30;;;;;;;;;;6231249;28;20084;-78
2023/04/29 09:13:28;;;;;;;2.90;1.90;;;;;;;;;;6245497;28;20037;-79
2023/04/29 09:16:30;;;;;;;2.45;1.75;;;;;;;;;;6230399;28;20056;-79
2023/04/29 09:19:34;;;;;;;2.85;2.08;;;;;;;;;;6231936;28;20758;-78
2023/04/29 09:22:57;;;;;;;2.67;1.80;;;;;;;;;;6245785;28;20057;-78
2023/04/29 09:25:59;;;;;;;2.80;2.00;;;;;;;;;;6228687;28;20044;-79
2023/04/29 09:29:10;;;;;;;3.25;2.00;;;;;;;;;;6235274;28;20038;-78
2023/04/29 09:32:19;;;;;;;1.92;1.63;;;;;;;;;;6234248;28;20045;-76
2023/04/29 09:35:26;;;;;;;2.22;1.92;;;;;;;;;;6201159;28;20062;-78
2023/04/29 09:38:27;;;;;;;3.28;2.58;;;;;;;;;;6229473;28;20134;-79
2023/04/29 09:41:29;;;;;;;2.65;1.85;;;;;;;;;;6227701;28;20041;-77
2023/04/29 09:44:34;;;;;;;4.07;2.20;;;;;;;;;;6226217;28;20047;-77
2023/04/29 09:47:36;;;;;;;3.17;2.72;;;;;;;;;;6228048;28;20041;-77
2023/04/29 09:50:39;;;;;;;3.00;2.10;;;;;;;;;;6225882;28;20192;-77
2023/04/29 09:53:41;;;;;;;3.88;2.72;;;;;;;;;;6230380;28;20049;-77
2023/04/29 09:56:50;;;;;;;4.65;3.75;;;;;;;;;;6237925;28;20033;-77
2023/04/29 09:59:52;;;;;;;4.57;2.90;;;;;;;;;;6226006;28;20204;-77
2023/04/29 10:02:57;;;;;;;3.75;2.60;;;;;;;;;;6228287;28;20050;-77
2023/04/29 10:06:00;;;;;;;4.15;2.42;;;;;;;;;;6228462;28;20045;-77
2023/04/29 10:09:02;;;;;;;7.30;4.00;;;;;;;;;;6215581;28;20619;-78
2023/04/29 10:12:06;;;;;;;3.75;2.53;;;;;;;;;;6233035;28;20499;-78
2023/04/29 10:15:35;;;;;;;7.35;3.63;;;;;;;;;;6229737;28;20037;-78
2023/04/29 10:18:40;;;;;;;3.60;2.33;;;;;;;;;;6220218;28;20057;-77
2023/04/29 10:21:42;;;;;;;4.72;2.53;;;;;;;;;;6224265;28;20511;-79
2023/04/29 10:24:46;;;;;;;3.90;2.72;;;;;;;;;;6201490;28;20057;-78
2023/04/29 10:27:52;;;;;;;3.47;2.20;;;;;;;;;;6211269;28;20030;-78
2023/04/29 10:30:56;;;;;;;5.25;2.90;;;;;;;;;;6218606;28;20046;-78
2023/04/29 10:33:58;;;;;;;6.00;2.70;;;;;;;;;;6215920;28;20045;-77
2023/04/29 10:37:00;;;;;;;7.03;3.40;;;;;;;;;;6211086;28;20042;-77
2023/04/29 10:40:27;;;;;;;4.70;2.97;;;;;;;;;;6216061;28;20038;-78
2023/04/29 10:43:30;;;;;;;5.13;3.10;;;;;;;;;;6214703;28;20124;-78
2023/04/29 10:46:32;;;;;;;;;;;;;;;;;;6210670;28;20165;-77
2023/04/29 10:49:34;;;;;;;6.43;3.72;;;;;;;;;;6239742;28;19929;-78
2023/04/29 10:53:02;;;;;;;6.32;4.00;;;;;;;;;;6252817;28;20152;-77
2023/04/29 10:56:08;;;;;;;11.45;5.43;;;;;;;;;;6224432;28;20422;-77
2023/04/29 10:59:14;;;;;;;11.18;5.38;;;;;;;;;;6229732;28;20068;-77
2023/04/29 11:02:15;;;;;;;9.20;4.50;;;;;;;;;;6225549;28;20045;-76
2023/04/29 11:05:37;;;;;;;8.30;4.68;;;;;;;;;;6226619;28;20041;-77
2023/04/29 11:08:39;;;;;;;8.63;5.65;;;;;;;;;;6226996;28;20053;-75
2023/04/29 11:11:45;;;;;;;9.30;4.87;;;;;;;;;;6234199;28;20044;-77
2023/04/29 11:14:50;;;;;;;11.63;5.15;;;;;;;;;;6229466;28;20138;-77
2023/04/29 11:17:58;;;;;;;10.45;5.13;;;;;;;;;;6210995;28;20049;-77
2023/04/29 11:21:05;;;;;;;9.65;5.07;;;;;;;;;;6229802;28;20124;-76
2023/04/29 11:24:07;;;;;;;9.00;4.90;;;;;;;;;;6231192;28;20045;-78
2023/04/29 11:27:09;;;;;;;8.50;5.20;;;;;;;;;;6235187;28;20129;-80
2023/04/29 11:30:12;;;;;;;8.68;4.72;;;;;;;;;;6237097;28;20041;-79
2023/04/29 11:33:14;;;;;;;8.82;4.97;;;;;;;;;;6237688;28;20050;-79
2023/04/29 11:36:15;;;;;;;9.82;5.68;;;;;;;;;;6236804;28;20057;-79
2023/04/29 11:39:17;;;;;;;10.75;5.80;;;;;;;;;;6237800;28;20134;-79
2023/04/29 11:42:20;;;;;;;11.70;6.15;;;;;;;;;;6236526;28;20160;-78
2023/04/29 11:45:22;;;;;;;13.95;6.40;;;;;;;;;;6236447;28;20049;-77
2023/04/29 11:48:25;;;;;;;11.95;6.65;;;;;;;;;;6234448;28;20045;-78
2023/04/29 11:51:27;;;;;;;13.77;6.45;;;;;;;;;;6234423;28;20054;-79
2023/04/29 11:54:29;;;;;;;10.68;5.53;;;;;;;;;;6236115;28;20057;-78
2023/04/29 11:57:31;;;;;;;12.65;6.30;;;;;;;;;;6237531;28;20171;-77
2023/04/29 12:00:33;;;;;;;11.23;5.90;;;;;;;;;;6230172;28;20582;-79
2023/04/29 12:03:35;;;;;;;9.60;5.47;;;;;;;;;;6233553;28;20053;-78
2023/04/29 12:06:37;;;;;;;9.93;5.75;;;;;;;;;;6232712;28;20049;-79
2023/04/29 12:09:43;;;;;;;8.77;4.28;;;;;;;;;;6234475;28;20415;-78
2023/04/29 12:12:46;;;;;;;8.85;4.72;;;;;;;;;;6251125;28;20049;-77
2023/04/29 12:15:50;;;;;;;7.63;4.38;;;;;;;;;;6234329;28;20052;-77
2023/04/29 12:18:52;;;;;;;6.75;3.17;;;;;;;;;;6236694;28;20041;-77
2023/04/29 12:22:01;;;;;;;6.25;3.38;;;;;;;;;;6237014;28;20076;-78
2023/04/29 12:25:04;;;;;;;6.40;3.35;;;;;;;;;;6234985;28;20046;-77
2023/04/29 12:28:15;;;;;;;7.47;3.60;;;;;;;;;;6228108;28;20132;-76
2023/04/29 12:31:17;;;;;;;5.97;3.78;;;;;;;;;;6233951;28;20041;-77
2023/04/29 12:34:27;;;;;;;7.10;3.30;;;;;;;;;;6232117;28;20045;-77
2023/04/29 12:37:29;;;;;;;5.38;3.00;;;;;;;;;;6228095;28;20044;-77
2023/04/29 12:40:32;;;;;;;5.75;3.25;;;;;;;;;;6235680;28;20532;-77
2023/04/29 12:43:33;;;;;;;5.07;2.92;;;;;;;;;;6231679;28;20049;-77
2023/04/29 12:46:37;;;;;;;4.47;2.78;;;;;;;;;;6234331;28;20600;-77
2023/04/29 12:49:45;;;;;;;5.25;3.03;;;;;;;;;;6230277;28;20056;-78
2023/04/29 12:52:48;;;;;;;5.15;3.00;;;;;;;;;;6228498;28;20068;-77
2023/04/29 12:55:50;;;;;;;4.45;2.60;;;;;;;;;;6233505;28;20052;-77
2023/04/29 12:58:52;;;;;;;3.40;2.57;;;;;;;;;;6235406;28;20083;-77
2023/04/29 13:01:54;;;;;;;3.72;2.40;;;;;;;;;;6245145;28;20884;-77
2023/04/29 13:04:56;;;;;;;3.40;2.22;;;;;;;;;;6231897;28;20045;-77
2023/04/29 13:07:58;;;;;;;3.85;2.22;;;;;;;;;;6228710;28;20057;-77
2023/04/29 13:11:00;;;;;;;3.97;2.30;;;;;;;;;;6228618;28;20168;-77
2023/04/29 13:14:02;;;;;;;3.58;2.63;;;;;;;;;;6243213;28;20041;-76
2023/04/29 13:17:04;;;;;;;3.58;2.38;;;;;;;;;;6223256;28;20872;-78
2023/04/29 13:20:06;;;;;;;3.42;2.13;;;;;;;;;;6227639;28;20157;-78
2023/04/29 13:23:11;;;;;;;5.40;2.72;;;;;;;;;;6224859;28;20045;-78
2023/04/29 13:26:13;;;;;;;4.78;2.30;;;;;;;;;;6228964;28;20057;-78
2023/04/29 13:29:15;;;;;;;3.88;2.60;;;;;;;;;;6233848;28;20045;-78
2023/04/29 13:32:16;;;;;;;3.78;2.10;;;;;;;;;;6230639;28;20049;-77
2023/04/29 13:35:19;;;;;;;3.15;2.15;;;;;;;;;;6228860;28;20049;-77
2023/04/29 13:38:21;;;;;;;4.38;2.40;;;;;;;;;;6225922;28;20060;-77
2023/04/29 13:41:25;;;;;;;3.53;2.30;;;;;;;;;;6228915;28;20053;-77
2023/04/29 13:44:26;;;;;;;4.20;2.17;;;;;;;;;;6227372;28;20038;-78
2023/04/29 13:47:46;;;;;;;4.80;2.40;;;;;;;;;;6223002;28;20172;-77
2023/04/29 13:51:07;;;;;;;6.28;2.08;;;;;;;;;;6226422;28;20045;-77
2023/04/29 13:54:12;;;;;;;6.57;2.28;;;;;;;;;;6228844;28;20045;-77
2023/04/29 13:57:16;;;;;;;3.08;2.10;;;;;;;;;;6230507;28;20068;-77
2023/04/29 14:00:21;;;;;;;4.30;2.40;;;;;;;;;;6234422;28;20422;-77
2023/04/29 14:03:26;;;;;;;5.60;2.47;;;;;;;;;;6234825;28;20041;-78
2023/04/29 14:06:29;;;;;;;5.45;2.50;;;;;;;;;;6230869;28;20430;-77
2023/04/29 14:09:31;;;;;;;3.78;2.38;;;;;;;;;;6235571;28;20613;-78
2023/04/29 14:12:32;;;;;;;6.07;2.83;;;;;;;;;;6233346;28;21118;-77
2023/04/29 14:15:34;;;;;;;3.90;2.60;;;;;;;;;;6232464;28;20045;-78
2023/04/29 14:18:36;;;;;;;5.10;2.70;;;;;;;;;;6231347;28;20131;-77
2023/04/29 14:21:37;;;;;;;5.18;2.28;;;;;;;;;;6236881;28;20104;-78
2023/04/29 14:24:39;;;;;;;4.93;2.95;;;;;;;;;;6237799;28;20511;-77
2023/04/29 14:27:41;;;;;;;4.47;2.70;;;;;;;;;;6229225;28;20061;-77
2023/04/29 14:30:42;;;;;;;4.30;2.75;;;;;;;;;;6233998;28;20049;-78
2023/04/29 14:33:49;;;;;;;3.58;2.38;;;;;;;;;;6234107;28;20120;-78
2023/04/29 14:36:51;;;;;;;4.30;2.65;;;;;;;;;;6245669;28;20057;-77
2023/04/29 14:39:53;;;;;;;4.28;2.88;;;;;;;;;;6244805;28;20045;-78
2023/04/29 14:42:54;;;;;;;6.82;4.40;;;;;;;;;;6251197;28;20116;-78
2023/04/29 14:45:56;;;;;;;7.35;4.50;;;;;;;;;;6237191;28;20411;-78
2023/04/29 14:48:58;;;;;;;12.52;6.80;;;;;;;;;;6236584;28;20057;-78
2023/04/29 14:52:00;;;;;;;13.30;7.25;;;;;;;;;;6233267;28;20177;-78
2023/04/29 14:55:01;;;;;;;11.68;7.00;;;;;;;;;;6235471;28;20045;-78
2023/04/29 14:58:03;;;;;;;12.75;7.43;;;;;;;;;;6233699;28;20041;-77
2023/04/29 15:01:05;;;;;;;14.55;7.38;;;;;;;;;;6234961;28;20045;-77
2023/04/29 15:04:07;;;;;;;12.73;7.57;;;;;;;;;;6229540;28;20045;-77
2023/04/29 15:07:09;;;;;;;15.75;8.00;;;;;;;;;;6234627;28;20045;-76
2023/04/29 15:10:11;;;;;;;15.07;8.52;;;;;;;;;;6247124;28;20132;-77
2023/04/29 15:13:12;;;;;;;13.77;7.70;;;;;;;;;;6231524;28;20124;-76
2023/04/29 15:16:14;;;;;;;16.17;9.13;;;;;;;;;;6231386;28;20064;-78
2023/04/29 15:19:16;;;;;;;14.15;8.07;;;;;;;;;;6251405;28;20159;-76
2023/04/29 15:22:17;;;;;;;15.20;9.25;;;;;;;;;;6234004;28;20038;-77
2023/04/29 15:25:19;;;;;;;13.48;8.05;;;;;;;;;;6234365;28;20037;-77
2023/04/29 15:28:24;;;;;;;18.00;11.32;;;;;;;;;;6229890;28;20080;-77
2023/04/29 15:31:26;;;;;;;20.23;12.38;;;;;;;;;;6235276;28;20045;-76
2023/04/29 15:34:31;;;;;;;16.75;10.05;;;;;;;;;;6249587;28;20042;-77
2023/04/29 15:37:33;;;;;;;15.70;11.05;;;;;;;;;;6225924;28;20056;-78
2023/04/29 15:40:34;;;;;;;14.10;8.93;;;;;;;;;;6239006;28;20042;-77
2023/04/29 15:43:38;;;;;;;15.02;10.15;;;;;;;;;;6238360;28;20041;-77
2023/04/29 15:46:40;;;;;;;15.88;10.45;;;;;;;;;;6233832;28;20050;-77
2023/04/29 15:49:41;;;;;;;16.20;9.25;;;;;;;;;;6222495;28;20037;-77
2023/04/29 15:52:43;;;;;;;21.67;11.65;;;;;;;;;;6235825;28;20179;-77
2023/04/29 15:55:45;;;;;;;21.60;11.30;;;;;;;;;;6230687;28;20044;-77
2023/04/29 15:58:46;;;;;;;15.65;10.20;;;;;;;;;;6246260;28;20071;-78
2023/04/29 16:01:48;;;;;;;18.52;9.85;;;;;;;;;;6230050;28;20072;-78
2023/04/29 16:04:50;;;;;;;16.13;9.65;;;;;;;;;;6237861;28;20041;-78
2023/04/29 16:07:51;;;;;;;16.50;9.93;;;;;;;;;;6236045;28;20045;-78
2023/04/29 16:10:53;;;;;;;17.23;10.60;;;;;;;;;;6236594;28;20042;-77
2023/04/29 16:13:54;;;;;;;12.88;8.73;;;;;;;;;;6211581;28;20073;-79
2023/04/29 16:16:56;;;;;;;16.08;9.93;;;;;;;;;;6216597;28;20042;-78
2023/04/29 16:19:58;;;;;;;15.63;9.60;;;;;;;;;;6210373;28;20061;-78
2023/04/29 16:23:02;;;;;;;12.43;8.43;;;;;;;;;;6205156;28;20050;-78
2023/04/29 16:26:05;;;;;;;15.20;9.33;;;;;;;;;;6209451;28;20045;-77
2023/04/29 16:29:08;;;;;;;13.80;9.27;;;;;;;;;;6211378;28;20049;-78
2023/04/29 16:32:10;;;;;;;14.30;9.65;;;;;;;;;;6210081;28;20042;-79
2023/04/29 16:35:12;;;;;;;13.20;8.55;;;;;;;;;;6203212;28;20499;-79
2023/04/29 16:38:14;;;;;;;14.98;10.05;;;;;;;;;;6232907;28;20124;-79
2023/04/29 16:41:16;;;;;;;13.65;9.30;;;;;;;;;;6233266;28;20056;-79
2023/04/29 16:44:17;;;;;;;15.95;9.55;;;;;;;;;;6235576;28;20041;-78
2023/04/29 16:47:19;;;;;;;14.85;9.50;;;;;;;;;;6234554;28;20052;-77
2023/04/29 16:50:21;;;;;;;17.35;11.50;;;;;;;;;;6234294;28;20172;-78
2023/04/29 16:53:23;;;;;;;24.40;12.68;;;;;;;;;;6232011;28;20049;-78
2023/04/29 16:56:24;;;;;;;18.17;10.80;;;;;;;;;;6235209;28;20063;-79
2023/04/29 16:59:26;;;;;;;16.33;11.30;;;;;;;;;;6252056;28;20400;-78
2023/04/29 17:02:28;;;;;;;15.85;11.07;;;;;;;;;;6233576;28;20500;-78
2023/04/29 17:05:31;;;;;;;18.17;11.07;;;;;;;;;;6237275;28;20052;-79
2023/04/29 17:08:33;;;;;;;;;;;;;;;;;;6238189;28;20509;-78
2023/04/29 17:11:34;;;;;;;15.13;9.25;;;;;;;;;;6235196;28;20521;-78
2023/04/29 17:14:36;;;;;;;13.68;9.40;;;;;;;;;;6231960;28;20041;-78
2023/04/29 17:17:40;;;;;;;13.77;9.73;;;;;;;;;;6234819;28;20499;-78
2023/04/29 17:20:42;;;;;;;13.70;9.25;;;;;;;;;;6235706;28;20048;-78
2023/04/29 17:23:44;;;;;;;13.40;8.57;;;;;;;;;;6234650;28;20064;-77
2023/04/29 17:26:45;;;;;;;14.18;9.38;;;;;;;;;;6235302;28;20042;-78
2023/04/29 17:29:47;;;;;;;13.55;9.00;;;;;;;;;;6233583;28;20053;-78
2023/04/29 17:32:49;;;;;;;18.17;10.23;;;;;;;;;;6241507;28;20065;-77
2023/04/29 17:35:51;;;;;;;14.10;9.48;;;;;;;;;;6228015;28;20065;-78
2023/04/29 17:38:52;;;;;;;19.85;11.55;;;;;;;;;;6257572;28;20120;-77
2023/04/29 17:41:54;;;;;;;18.15;10.00;;;;;;;;;;6226316;28;20037;-78
2023/04/29 17:44:57;;;;;;;14.85;10.13;;;;;;;;;;6238438;28;20411;-79
2023/04/29 17:47:58;;;;;;;17.48;10.88;;;;;;;;;;6240377;28;20052;-78
2023/04/29 17:51:00;;;;;;;14.82;9.65;;;;;;;;;;6233300;28;20223;-79
2023/04/29 17:54:05;;;;;;;20.80;11.93;;;;;;;;;;6238782;28;20045;-77
2023/04/29 17:57:07;;;;;;;12.70;9.05;;;;;;;;;;6229486;28;20577;-76
2023/04/29 18:00:10;;;;;;;12.60;8.75;;;;;;;;;;6235570;28;20598;-77
2023/04/29 18:03:12;;;;;;;16.45;8.82;;;;;;;;;;6236470;28;20191;-77
2023/04/29 18:06:13;;;;;;;14.10;8.38;;;;;;;;;;6235103;28;20057;-77
2023/04/29 18:09:16;;;;;;;12.70;8.98;;;;;;;;;;6231983;28;20045;-77
2023/04/29 18:12:18;;;;;;;12.88;9.15;;;;;;;;;;6221586;28;20037;-77
2023/04/29 18:15:21;;;;;;;13.30;8.85;;;;;;;;;;6236272;28;20042;-77